sensor_id;sensor_type;location;lat;lon;timestamp;temperature;humidity
18703;DHT22;9481;48.796;9.210;2023-02-28T00:00:25;5.70;33.40
18703;DHT22;9481;48.796;9.210;2023-02-28T00:02:51;5.70;33.40
18703;DHT22;9481;48.796;9.210;2023-02-28T00:05:19;5.70;33.50
18703;DHT22;9481;48.796;9.210;2023-02-28T00:07:46;5.60;33.50
18703;DHT22;9481;48.796;9.210;2023-02-28T00:10:25;5.60;33.50
18703;DHT22;9481;48.796;9.210;2023-02-28T00:12:53;5.60;33.50
18703;DHT22;9481;48.796;9.210;2023-02-28T00:15:23;5.60;33.60
18703;DHT22;9481;48.796;9.210;2023-02-28T00:17:49;5.60;33.60
18703;DHT22;9481;48.796;9.210;2023-02-28T00:20:16;5.60;33.70
18703;DHT22;9481;48.796;9.210;2023-02-28T00:22:44;5.60;33.70
18703;DHT22;9481;48.796;9.210;2023-02-28T00:25:14;5.60;33.80
18703;DHT22;9481;48.796;9.210;2023-02-28T00:27:45;5.60;33.80
18703;DHT22;9481;48.796;9.210;2023-02-28T00:30:16;5.50;33.90
18703;DHT22;9481;48.796;9.210;2023-02-28T00:32:47;5.50;33.90
18703;DHT22;9481;48.796;9.210;2023-02-28T00:35:13;5.50;33.90
18703;DHT22;9481;48.796;9.210;2023-02-28T00:37:38;5.50;34.00
18703;DHT22;9481;48.796;9.210;2023-02-28T00:40:05;5.50;34.00
18703;DHT22;9481;48.796;9.210;2023-02-28T00:42:32;5.50;34.10
18703;DHT22;9481;48.796;9.210;2023-02-28T00:44:59;5.50;34.10
18703;DHT22;9481;48.796;9.210;2023-02-28T00:47:25;5.50;34.10
18703;DHT22;9481;48.796;9.210;2023-02-28T00:49:51;5.50;34.30
18703;DHT22;9481;48.796;9.210;2023-02-28T00:52:16;5.40;34.20
18703;DHT22;9481;48.796;9.210;2023-02-28T00:54:42;5.40;34.20
18703;DHT22;9481;48.796;9.210;2023-02-28T00:57:08;5.40;34.20
18703;DHT22;9481;48.796;9.210;2023-02-28T00:59:34;5.40;34.30
18703;DHT22;9481;48.796;9.210;2023-02-28T01:02:00;5.40;34.30
18703;DHT22;9481;48.796;9.210;2023-02-28T01:04:25;5.40;34.40
18703;DHT22;9481;48.796;9.210;2023-02-28T01:06:51;5.40;34.50
18703;DHT22;9481;48.796;9.210;2023-02-28T01:09:17;5.40;34.50
18703;DHT22;9481;48.796;9.210;2023-02-28T01:11:43;5.40;34.50
18703;DHT22;9481;48.796;9.210;2023-02-28T01:14:13;5.40;34.70
18703;DHT22;9481;48.796;9.210;2023-02-28T01:16:40;5.40;34.80
18703;DHT22;9481;48.796;9.210;2023-02-28T01:19:06;5.40;34.80
18703;DHT22;9481;48.796;9.210;2023-02-28T01:21:32;5.30;34.70
18703;DHT22;9481;48.796;9.210;2023-02-28T01:23:58;5.30;34.70
18703;DHT22;9481;48.796;9.210;2023-02-28T01:26:24;5.30;34.80
18703;DHT22;9481;48.796;9.210;2023-02-28T01:28:51;5.30;34.80
18703;DHT22;9481;48.796;9.210;2023-02-28T01:31:18;5.30;34.90
18703;DHT22;9481;48.796;9.210;2023-02-28T01:33:45;5.30;34.90
18703;DHT22;9481;48.796;9.210;2023-02-28T01:36:14;5.30;35.00
18703;DHT22;9481;48.796;9.210;2023-02-28T01:38:42;5.30;35.00
18703;DHT22;9481;48.796;9.210;2023-02-28T01:41:20;5.30;35.00
18703;DHT22;9481;48.796;9.210;2023-02-28T01:47:17;5.30;35.40
18703;DHT22;9481;48.796;9.210;2023-02-28T01:49:42;5.20;35.10
18703;DHT22;9481;48.796;9.210;2023-02-28T01:52:09;5.20;35.20
18703;DHT22;9481;48.796;9.210;2023-02-28T01:54:40;5.20;35.40
18703;DHT22;9481;48.796;9.210;2023-02-28T01:57:12;5.20;35.40
18703;DHT22;9481;48.796;9.210;2023-02-28T01:59:59;5.20;36.20
18703;DHT22;9481;48.796;9.210;2023-02-28T02:02:36;5.20;35.70
18703;DHT22;9481;48.796;9.210;2023-02-28T02:05:09;5.20;35.50
18703;DHT22;9481;48.796;9.210;2023-02-28T02:07:39;5.20;35.70
18703;DHT22;9481;48.796;9.210;2023-02-28T02:10:21;5.20;35.70
18703;DHT22;9481;48.796;9.210;2023-02-28T02:13:11;5.20;35.90
18703;DHT22;9481;48.796;9.210;2023-02-28T02:18:33;5.20;35.90
18703;DHT22;9481;48.796;9.210;2023-02-28T02:27:25;5.20;36.30
18703;DHT22;9481;48.796;9.210;2023-02-28T02:33:15;5.10;36.50
18703;DHT22;9481;48.796;9.210;2023-02-28T02:36:07;5.10;36.20
18703;DHT22;9481;48.796;9.210;2023-02-28T02:38:52;5.10;36.40
18703;DHT22;9481;48.796;9.210;2023-02-28T02:41:48;5.10;36.60
18703;DHT22;9481;48.796;9.210;2023-02-28T02:44:48;5.20;36.60
18703;DHT22;9481;48.796;9.210;2023-02-28T02:47:20;5.20;36.90
18703;DHT22;9481;48.796;9.210;2023-02-28T02:49:52;5.20;36.70
18703;DHT22;9481;48.796;9.210;2023-02-28T02:52:29;5.20;36.70
18703;DHT22;9481;48.796;9.210;2023-02-28T02:55:00;5.20;36.80
18703;DHT22;9481;48.796;9.210;2023-02-28T02:57:47;5.20;36.80
18703;DHT22;9481;48.796;9.210;2023-02-28T03:00:23;5.20;37.00
18703;DHT22;9481;48.796;9.210;2023-02-28T03:02:53;5.20;36.90
18703;DHT22;9481;48.796;9.210;2023-02-28T03:05:24;5.20;36.90
18703;DHT22;9481;48.796;9.210;2023-02-28T03:07:52;5.20;37.00
18703;DHT22;9481;48.796;9.210;2023-02-28T03:13:40;5.30;37.30
18703;DHT22;9481;48.796;9.210;2023-02-28T03:22:09;5.30;37.10
18703;DHT22;9481;48.796;9.210;2023-02-28T03:31:01;5.40;37.30
18703;DHT22;9481;48.796;9.210;2023-02-28T03:33:45;5.30;37.20
18703;DHT22;9481;48.796;9.210;2023-02-28T03:36:32;5.30;37.40
18703;DHT22;9481;48.796;9.210;2023-02-28T03:39:18;5.30;37.30
18703;DHT22;9481;48.796;9.210;2023-02-28T03:41:58;5.30;37.20
18703;DHT22;9481;48.796;9.210;2023-02-28T03:44:36;5.40;37.50
18703;DHT22;9481;48.796;9.210;2023-02-28T03:47:09;5.40;37.60
18703;DHT22;9481;48.796;9.210;2023-02-28T03:49:45;5.30;37.50
18703;DHT22;9481;48.796;9.210;2023-02-28T03:52:15;5.30;37.50
18703;DHT22;9481;48.796;9.210;2023-02-28T03:54:48;5.30;37.40
18703;DHT22;9481;48.796;9.210;2023-02-28T04:00:37;5.30;37.50
18703;DHT22;9481;48.796;9.210;2023-02-28T04:03:05;5.30;37.30
18703;DHT22;9481;48.796;9.210;2023-02-28T04:05:31;5.30;37.50
18703;DHT22;9481;48.796;9.210;2023-02-28T04:08:06;5.30;37.60
18703;DHT22;9481;48.796;9.210;2023-02-28T04:10:33;5.30;37.80
18703;DHT22;9481;48.796;9.210;2023-02-28T04:12:59;5.30;37.70
18703;DHT22;9481;48.796;9.210;2023-02-28T04:15:24;5.30;37.70
18703;DHT22;9481;48.796;9.210;2023-02-28T04:17:52;5.30;37.80
18703;DHT22;9481;48.796;9.210;2023-02-28T04:20:18;5.30;37.80
18703;DHT22;9481;48.796;9.210;2023-02-28T04:22:44;5.40;37.90
18703;DHT22;9481;48.796;9.210;2023-02-28T04:25:09;5.30;37.90
18703;DHT22;9481;48.796;9.210;2023-02-28T04:27:35;5.40;38.10
18703;DHT22;9481;48.796;9.210;2023-02-28T04:30:01;5.40;38.00
18703;DHT22;9481;48.796;9.210;2023-02-28T04:32:27;5.40;38.10
18703;DHT22;9481;48.796;9.210;2023-02-28T04:34:52;5.40;38.70
18703;DHT22;9481;48.796;9.210;2023-02-28T04:37:18;5.40;38.00
18703;DHT22;9481;48.796;9.210;2023-02-28T04:39:44;5.40;38.00
18703;DHT22;9481;48.796;9.210;2023-02-28T04:42:10;5.40;38.10
18703;DHT22;9481;48.796;9.210;2023-02-28T04:44:36;5.40;38.20
18703;DHT22;9481;48.796;9.210;2023-02-28T04:47:02;5.30;38.20
18703;DHT22;9481;48.796;9.210;2023-02-28T04:49:28;5.30;38.20
18703;DHT22;9481;48.796;9.210;2023-02-28T04:51:53;5.30;38.20
18703;DHT22;9481;48.796;9.210;2023-02-28T04:54:19;5.30;38.30
18703;DHT22;9481;48.796;9.210;2023-02-28T04:56:45;5.30;38.30
18703;DHT22;9481;48.796;9.210;2023-02-28T04:59:11;5.30;38.20
18703;DHT22;9481;48.796;9.210;2023-02-28T05:01:36;5.30;38.30
18703;DHT22;9481;48.796;9.210;2023-02-28T05:04:03;5.30;38.40
18703;DHT22;9481;48.796;9.210;2023-02-28T05:06:32;5.30;38.60
18703;DHT22;9481;48.796;9.210;2023-02-28T05:08:58;5.30;38.50
18703;DHT22;9481;48.796;9.210;2023-02-28T05:11:30;5.30;38.30
18703;DHT22;9481;48.796;9.210;2023-02-28T05:14:01;5.40;38.60
18703;DHT22;9481;48.796;9.210;2023-02-28T05:16:31;5.40;38.60
18703;DHT22;9481;48.796;9.210;2023-02-28T05:18:58;5.30;38.40
18703;DHT22;9481;48.796;9.210;2023-02-28T05:21:29;5.40;38.30
18703;DHT22;9481;48.796;9.210;2023-02-28T05:24:03;5.40;38.50
18703;DHT22;9481;48.796;9.210;2023-02-28T05:26:31;5.30;38.50
18703;DHT22;9481;48.796;9.210;2023-02-28T05:29:00;5.30;38.60
18703;DHT22;9481;48.796;9.210;2023-02-28T05:31:25;5.30;38.70
18703;DHT22;9481;48.796;9.210;2023-02-28T05:33:51;5.30;38.70
18703;DHT22;9481;48.796;9.210;2023-02-28T05:36:17;5.30;38.70
18703;DHT22;9481;48.796;9.210;2023-02-28T05:38:46;5.30;38.90
18703;DHT22;9481;48.796;9.210;2023-02-28T05:41:13;5.30;38.90
18703;DHT22;9481;48.796;9.210;2023-02-28T05:43:39;5.30;38.90
18703;DHT22;9481;48.796;9.210;2023-02-28T05:46:06;5.30;39.10
18703;DHT22;9481;48.796;9.210;2023-02-28T05:48:34;5.30;39.10
18703;DHT22;9481;48.796;9.210;2023-02-28T05:51:02;5.30;39.00
18703;DHT22;9481;48.796;9.210;2023-02-28T05:53:28;5.30;39.10
18703;DHT22;9481;48.796;9.210;2023-02-28T05:55:54;5.30;39.10
18703;DHT22;9481;48.796;9.210;2023-02-28T05:58:21;5.30;39.20
18703;DHT22;9481;48.796;9.210;2023-02-28T06:00:47;5.30;39.20
18703;DHT22;9481;48.796;9.210;2023-02-28T06:03:14;5.30;39.20
18703;DHT22;9481;48.796;9.210;2023-02-28T06:05:40;5.30;39.30
18703;DHT22;9481;48.796;9.210;2023-02-28T06:08:06;5.30;39.30
18703;DHT22;9481;48.796;9.210;2023-02-28T06:10:33;5.40;39.50
18703;DHT22;9481;48.796;9.210;2023-02-28T06:13:03;5.40;39.40
18703;DHT22;9481;48.796;9.210;2023-02-28T06:15:29;5.40;39.50
18703;DHT22;9481;48.796;9.210;2023-02-28T06:17:55;5.40;39.50
18703;DHT22;9481;48.796;9.210;2023-02-28T06:20:23;5.40;39.40
18703;DHT22;9481;48.796;9.210;2023-02-28T06:22:49;5.50;39.30
18703;DHT22;9481;48.796;9.210;2023-02-28T06:25:19;5.50;39.20
18703;DHT22;9481;48.796;9.210;2023-02-28T06:27:45;5.50;39.30
18703;DHT22;9481;48.796;9.210;2023-02-28T06:30:11;5.50;39.30
18703;DHT22;9481;48.796;9.210;2023-02-28T06:32:37;5.50;39.30
18703;DHT22;9481;48.796;9.210;2023-02-28T06:35:03;5.40;39.20
18703;DHT22;9481;48.796;9.210;2023-02-28T06:37:31;5.50;39.30
18703;DHT22;9481;48.796;9.210;2023-02-28T06:39:57;5.50;39.10
18703;DHT22;9481;48.796;9.210;2023-02-28T06:42:24;5.50;39.20
18703;DHT22;9481;48.796;9.210;2023-02-28T06:44:57;5.50;39.20
18703;DHT22;9481;48.796;9.210;2023-02-28T06:47:23;5.50;39.30
18703;DHT22;9481;48.796;9.210;2023-02-28T06:49:50;5.50;39.30
18703;DHT22;9481;48.796;9.210;2023-02-28T06:52:16;5.50;39.30
18703;DHT22;9481;48.796;9.210;2023-02-28T06:54:42;5.50;39.30
18703;DHT22;9481;48.796;9.210;2023-02-28T06:57:08;5.50;39.30
18703;DHT22;9481;48.796;9.210;2023-02-28T06:59:34;5.50;39.30
18703;DHT22;9481;48.796;9.210;2023-02-28T07:02:00;5.50;39.30
18703;DHT22;9481;48.796;9.210;2023-02-28T07:04:27;5.50;39.30
18703;DHT22;9481;48.796;9.210;2023-02-28T07:06:55;5.50;39.30
18703;DHT22;9481;48.796;9.210;2023-02-28T07:09:22;5.50;39.20
18703;DHT22;9481;48.796;9.210;2023-02-28T07:11:48;5.60;39.30
18703;DHT22;9481;48.796;9.210;2023-02-28T07:14:14;5.60;39.30
18703;DHT22;9481;48.796;9.210;2023-02-28T07:16:39;5.60;39.30
18703;DHT22;9481;48.796;9.210;2023-02-28T07:19:05;5.60;39.30
18703;DHT22;9481;48.796;9.210;2023-02-28T07:21:31;5.60;39.20
18703;DHT22;9481;48.796;9.210;2023-02-28T07:23:56;5.70;39.30
18703;DHT22;9481;48.796;9.210;2023-02-28T07:26:23;5.60;39.10
18703;DHT22;9481;48.796;9.210;2023-02-28T07:28:49;5.70;39.30
18703;DHT22;9481;48.796;9.210;2023-02-28T07:31:16;5.70;39.20
18703;DHT22;9481;48.796;9.210;2023-02-28T07:33:43;5.70;39.10
18703;DHT22;9481;48.796;9.210;2023-02-28T07:36:11;5.70;39.20
18703;DHT22;9481;48.796;9.210;2023-02-28T07:38:44;5.80;39.20
18703;DHT22;9481;48.796;9.210;2023-02-28T07:41:13;5.80;39.10
18703;DHT22;9481;48.796;9.210;2023-02-28T07:43:40;5.80;39.00
18703;DHT22;9481;48.796;9.210;2023-02-28T07:46:09;5.80;39.00
18703;DHT22;9481;48.796;9.210;2023-02-28T07:48:36;5.80;38.90
18703;DHT22;9481;48.796;9.210;2023-02-28T07:51:02;5.80;38.90
18703;DHT22;9481;48.796;9.210;2023-02-28T07:53:29;5.80;38.90
18703;DHT22;9481;48.796;9.210;2023-02-28T07:55:56;5.80;39.00
18703;DHT22;9481;48.796;9.210;2023-02-28T07:58:24;5.80;39.00
18703;DHT22;9481;48.796;9.210;2023-02-28T08:00:51;5.80;39.00
18703;DHT22;9481;48.796;9.210;2023-02-28T08:03:21;5.80;39.00
18703;DHT22;9481;48.796;9.210;2023-02-28T08:05:48;5.90;39.10
18703;DHT22;9481;48.796;9.210;2023-02-28T08:08:15;5.90;39.00
18703;DHT22;9481;48.796;9.210;2023-02-28T08:10:42;5.90;39.10
18703;DHT22;9481;48.796;9.210;2023-02-28T08:13:08;5.90;39.10
18703;DHT22;9481;48.796;9.210;2023-02-28T08:15:34;5.90;39.00
18703;DHT22;9481;48.796;9.210;2023-02-28T08:17:59;6.00;39.00
18703;DHT22;9481;48.796;9.210;2023-02-28T08:20:26;6.00;39.00
18703;DHT22;9481;48.796;9.210;2023-02-28T08:22:52;6.00;39.10
18703;DHT22;9481;48.796;9.210;2023-02-28T08:25:18;6.00;38.90
18703;DHT22;9481;48.796;9.210;2023-02-28T08:27:44;6.00;38.80
18703;DHT22;9481;48.796;9.210;2023-02-28T08:30:14;6.00;38.90
18703;DHT22;9481;48.796;9.210;2023-02-28T08:32:40;6.00;38.80
18703;DHT22;9481;48.796;9.210;2023-02-28T08:35:07;6.10;38.90
18703;DHT22;9481;48.796;9.210;2023-02-28T08:37:34;6.10;38.90
18703;DHT22;9481;48.796;9.210;2023-02-28T08:40:00;6.10;38.90
18703;DHT22;9481;48.796;9.210;2023-02-28T08:42:26;6.10;38.90
18703;DHT22;9481;48.796;9.210;2023-02-28T08:44:52;6.10;38.80
18703;DHT22;9481;48.796;9.210;2023-02-28T08:47:17;6.10;38.80
18703;DHT22;9481;48.796;9.210;2023-02-28T08:49:43;6.10;39.50
18703;DHT22;9481;48.796;9.210;2023-02-28T08:52:09;6.10;38.80
18703;DHT22;9481;48.796;9.210;2023-02-28T08:54:35;6.10;38.80
18703;DHT22;9481;48.796;9.210;2023-02-28T08:57:02;6.10;38.80
18703;DHT22;9481;48.796;9.210;2023-02-28T08:59:29;6.20;39.00
18703;DHT22;9481;48.796;9.210;2023-02-28T09:01:55;6.20;39.00
18703;DHT22;9481;48.796;9.210;2023-02-28T09:04:20;6.20;39.00
18703;DHT22;9481;48.796;9.210;2023-02-28T09:06:46;6.20;39.10
18703;DHT22;9481;48.796;9.210;2023-02-28T09:09:14;6.20;39.00
18703;DHT22;9481;48.796;9.210;2023-02-28T09:11:40;6.20;39.00
18703;DHT22;9481;48.796;9.210;2023-02-28T09:14:06;6.30;39.10
18703;DHT22;9481;48.796;9.210;2023-02-28T09:16:33;6.30;39.10
18703;DHT22;9481;48.796;9.210;2023-02-28T09:18:59;6.30;39.10
18703;DHT22;9481;48.796;9.210;2023-02-28T09:21:25;6.40;39.20
18703;DHT22;9481;48.796;9.210;2023-02-28T09:23:52;6.40;39.00
18703;DHT22;9481;48.796;9.210;2023-02-28T09:26:21;6.40;39.00
18703;DHT22;9481;48.796;9.210;2023-02-28T09:28:48;6.50;39.00
18703;DHT22;9481;48.796;9.210;2023-02-28T09:31:17;6.50;39.00
18703;DHT22;9481;48.796;9.210;2023-02-28T09:33:52;6.50;39.00
18703;DHT22;9481;48.796;9.210;2023-02-28T09:36:20;6.50;39.00
18703;DHT22;9481;48.796;9.210;2023-02-28T09:38:46;6.50;38.80
18703;DHT22;9481;48.796;9.210;2023-02-28T09:41:25;6.60;39.00
18703;DHT22;9481;48.796;9.210;2023-02-28T09:43:59;6.60;39.10
18703;DHT22;9481;48.796;9.210;2023-02-28T09:46:43;6.70;39.10
18703;DHT22;9481;48.796;9.210;2023-02-28T09:49:15;6.70;39.00
18703;DHT22;9481;48.796;9.210;2023-02-28T09:51:46;6.70;38.90
18703;DHT22;9481;48.796;9.210;2023-02-28T09:54:28;6.80;38.80
18703;DHT22;9481;48.796;9.210;2023-02-28T09:57:25;6.80;38.80
18703;DHT22;9481;48.796;9.210;2023-02-28T10:06:03;6.90;38.70
18703;DHT22;9481;48.796;9.210;2023-02-28T10:08:19;7.00;38.70
18703;DHT22;9481;48.796;9.210;2023-02-28T10:10:55;7.00;38.50
18703;DHT22;9481;48.796;9.210;2023-02-28T10:16:25;7.00;38.50
18703;DHT22;9481;48.796;9.210;2023-02-28T10:18:59;7.00;38.30
18703;DHT22;9481;48.796;9.210;2023-02-28T10:21:36;7.00;38.40
18703;DHT22;9481;48.796;9.210;2023-02-28T10:27:20;7.10;38.40
18703;DHT22;9481;48.796;9.210;2023-02-28T10:29:50;7.10;38.30
18703;DHT22;9481;48.796;9.210;2023-02-28T10:32:29;7.10;38.30
18703;DHT22;9481;48.796;9.210;2023-02-28T10:37:39;7.20;38.60
18703;DHT22;9481;48.796;9.210;2023-02-28T10:40:07;7.30;38.70
18703;DHT22;9481;48.796;9.210;2023-02-28T10:45:24;7.40;38.60
18703;DHT22;9481;48.796;9.210;2023-02-28T10:47:56;7.50;38.60
18703;DHT22;9481;48.796;9.210;2023-02-28T10:50:28;7.60;38.70
18703;DHT22;9481;48.796;9.210;2023-02-28T10:58:57;7.90;38.40
18703;DHT22;9481;48.796;9.210;2023-02-28T11:01:48;8.00;38.40
18703;DHT22;9481;48.796;9.210;2023-02-28T11:06:59;8.30;38.30
18703;DHT22;9481;48.796;9.210;2023-02-28T11:09:34;8.40;38.10
18703;DHT22;9481;48.796;9.210;2023-02-28T11:12:06;8.50;38.00
18703;DHT22;9481;48.796;9.210;2023-02-28T11:14:46;8.50;37.80
18703;DHT22;9481;48.796;9.210;2023-02-28T11:17:20;8.60;37.70
18703;DHT22;9481;48.796;9.210;2023-02-28T11:19:51;8.70;37.70
18703;DHT22;9481;48.796;9.210;2023-02-28T11:22:23;8.80;37.70
18703;DHT22;9481;48.796;9.210;2023-02-28T11:24:58;8.80;37.50
18703;DHT22;9481;48.796;9.210;2023-02-28T11:29:56;8.90;37.30
18703;DHT22;9481;48.796;9.210;2023-02-28T11:32:27;8.90;37.20
18703;DHT22;9481;48.796;9.210;2023-02-28T11:35:10;9.00;37.30
18703;DHT22;9481;48.796;9.210;2023-02-28T11:37:42;9.00;36.90
18703;DHT22;9481;48.796;9.210;2023-02-28T11:40:20;9.00;36.90
18703;DHT22;9481;48.796;9.210;2023-02-28T11:43:06;9.10;36.80
18703;DHT22;9481;48.796;9.210;2023-02-28T11:49:10;9.30;37.50
18703;DHT22;9481;48.796;9.210;2023-02-28T11:51:59;9.60;37.80
18703;DHT22;9481;48.796;9.210;2023-02-28T11:55:04;10.00;37.60
18703;DHT22;9481;48.796;9.210;2023-02-28T11:57:59;10.60;37.40
18703;DHT22;9481;48.796;9.210;2023-02-28T12:00:59;11.20;37.80
18703;DHT22;9481;48.796;9.210;2023-02-28T12:06:38;12.30;37.10
18703;DHT22;9481;48.796;9.210;2023-02-28T12:15:38;13.20;33.60
18703;DHT22;9481;48.796;9.210;2023-02-28T12:25:03;13.90;33.00
18703;DHT22;9481;48.796;9.210;2023-02-28T12:27:38;14.20;31.80
18703;DHT22;9481;48.796;9.210;2023-02-28T12:30:25;14.50;33.80
18703;DHT22;9481;48.796;9.210;2023-02-28T12:33:03;14.90;33.10
18703;DHT22;9481;48.796;9.210;2023-02-28T12:35:52;15.50;35.20
18703;DHT22;9481;48.796;9.210;2023-02-28T12:38:43;16.20;33.60
18703;DHT22;9481;48.796;9.210;2023-02-28T12:41:18;16.90;32.90
18703;DHT22;9481;48.796;9.210;2023-02-28T12:43:53;17.70;34.60
18703;DHT22;9481;48.796;9.210;2023-02-28T12:46:30;18.30;33.10
18703;DHT22;9481;48.796;9.210;2023-02-28T12:49:10;18.90;31.90
18703;DHT22;9481;48.796;9.210;2023-02-28T12:51:41;19.40;30.20
18703;DHT22;9481;48.796;9.210;2023-02-28T12:59:52;20.20;28.70
18703;DHT22;9481;48.796;9.210;2023-02-28T13:11:01;20.70;27.90
18703;DHT22;9481;48.796;9.210;2023-02-28T13:13:29;20.90;27.80
18703;DHT22;9481;48.796;9.210;2023-02-28T13:16:09;21.00;27.70
18703;DHT22;9481;48.796;9.210;2023-02-28T13:18:44;21.20;26.50
18703;DHT22;9481;48.796;9.210;2023-02-28T13:34:31;22.10;25.00
18703;DHT22;9481;48.796;9.210;2023-02-28T13:37:34;22.30;26.20
18703;DHT22;9481;48.796;9.210;2023-02-28T13:40:31;22.60;24.00
18703;DHT22;9481;48.796;9.210;2023-02-28T13:43:02;22.80;24.80
18703;DHT22;9481;48.796;9.210;2023-02-28T13:45:29;22.90;25.40
18703;DHT22;9481;48.796;9.210;2023-02-28T13:48:16;23.00;25.10
18703;DHT22;9481;48.796;9.210;2023-02-28T13:50:45;23.10;24.00
18703;DHT22;9481;48.796;9.210;2023-02-28T13:55:52;23.20;23.70
18703;DHT22;9481;48.796;9.210;2023-02-28T14:07:00;23.30;22.90
18703;DHT22;9481;48.796;9.210;2023-02-28T14:09:32;23.40;23.50
18703;DHT22;9481;48.796;9.210;2023-02-28T14:21:16;23.40;21.80
18703;DHT22;9481;48.796;9.210;2023-02-28T14:24:09;23.40;21.70
18703;DHT22;9481;48.796;9.210;2023-02-28T14:36:00;23.00;21.70
18703;DHT22;9481;48.796;9.210;2023-02-28T14:38:36;22.90;21.90
18703;DHT22;9481;48.796;9.210;2023-02-28T14:41:15;22.70;22.00
18703;DHT22;9481;48.796;9.210;2023-02-28T14:44:20;22.50;21.80
18703;DHT22;9481;48.796;9.210;2023-02-28T14:46:58;22.20;22.00
18703;DHT22;9481;48.796;9.210;2023-02-28T14:49:36;21.90;21.90
18703;DHT22;9481;48.796;9.210;2023-02-28T14:52:27;21.60;21.70
18703;DHT22;9481;48.796;9.210;2023-02-28T14:55:01;21.10;21.30
18703;DHT22;9481;48.796;9.210;2023-02-28T14:57:38;20.50;21.50
18703;DHT22;9481;48.796;9.210;2023-02-28T15:00:21;19.80;21.50
18703;DHT22;9481;48.796;9.210;2023-02-28T15:02:52;19.10;21.80
18703;DHT22;9481;48.796;9.210;2023-02-28T15:05:27;18.40;22.00
18703;DHT22;9481;48.796;9.210;2023-02-28T15:08:12;17.90;22.40
18703;DHT22;9481;48.796;9.210;2023-02-28T15:10:43;17.40;23.00
18703;DHT22;9481;48.796;9.210;2023-02-28T15:13:13;17.10;23.40
18703;DHT22;9481;48.796;9.210;2023-02-28T15:15:45;16.90;23.70
18703;DHT22;9481;48.796;9.210;2023-02-28T15:21:19;16.90;24.20
18703;DHT22;9481;48.796;9.210;2023-02-28T15:24:19;17.00;24.30
18703;DHT22;9481;48.796;9.210;2023-02-28T15:26:54;17.10;24.30
18703;DHT22;9481;48.796;9.210;2023-02-28T15:29:46;17.20;24.30
18703;DHT22;9481;48.796;9.210;2023-02-28T15:34:56;17.30;24.20
18703;DHT22;9481;48.796;9.210;2023-02-28T15:37:38;17.30;24.40
18703;DHT22;9481;48.796;9.210;2023-02-28T15:43:12;17.30;24.30
18703;DHT22;9481;48.796;9.210;2023-02-28T15:45:51;17.20;24.10
18703;DHT22;9481;48.796;9.210;2023-02-28T15:51:07;17.00;24.20
18703;DHT22;9481;48.796;9.210;2023-02-28T15:56:30;16.60;24.10
18703;DHT22;9481;48.796;9.210;2023-02-28T15:59:06;16.30;24.10
18703;DHT22;9481;48.796;9.210;2023-02-28T16:01:35;15.90;24.10
18703;DHT22;9481;48.796;9.210;2023-02-28T16:04:05;15.50;24.20
18703;DHT22;9481;48.796;9.210;2023-02-28T16:07:00;15.10;24.40
18703;DHT22;9481;48.796;9.210;2023-02-28T16:09:28;14.80;24.70
18703;DHT22;9481;48.796;9.210;2023-02-28T16:11:56;14.40;24.80
18703;DHT22;9481;48.796;9.210;2023-02-28T16:14:28;14.10;25.00
18703;DHT22;9481;48.796;9.210;2023-02-28T16:17:06;13.80;25.20
18703;DHT22;9481;48.796;9.210;2023-02-28T16:19:44;13.60;25.70
18703;DHT22;9481;48.796;9.210;2023-02-28T16:22:10;13.30;25.60
18703;DHT22;9481;48.796;9.210;2023-02-28T16:24:36;13.10;25.90
18703;DHT22;9481;48.796;9.210;2023-02-28T16:27:02;12.90;26.10
18703;DHT22;9481;48.796;9.210;2023-02-28T16:29:31;12.70;26.20
18703;DHT22;9481;48.796;9.210;2023-02-28T16:31:59;12.50;26.40
18703;DHT22;9481;48.796;9.210;2023-02-28T16:34:26;12.40;26.50
18703;DHT22;9481;48.796;9.210;2023-02-28T16:36:52;12.30;26.80
18703;DHT22;9481;48.796;9.210;2023-02-28T16:39:18;12.10;26.80
18703;DHT22;9481;48.796;9.210;2023-02-28T16:41:47;12.00;26.80
18703;DHT22;9481;48.796;9.210;2023-02-28T16:44:25;11.90;27.00
18703;DHT22;9481;48.796;9.210;2023-02-28T16:46:51;11.80;27.30
18703;DHT22;9481;48.796;9.210;2023-02-28T16:49:18;11.60;27.30
18703;DHT22;9481;48.796;9.210;2023-02-28T16:51:43;11.50;27.90
18703;DHT22;9481;48.796;9.210;2023-02-28T16:54:09;11.50;27.70
18703;DHT22;9481;48.796;9.210;2023-02-28T16:56:34;11.30;27.70
18703;DHT22;9481;48.796;9.210;2023-02-28T16:59:01;11.30;27.70
18703;DHT22;9481;48.796;9.210;2023-02-28T17:01:28;11.20;27.80
18703;DHT22;9481;48.796;9.210;2023-02-28T17:03:54;11.10;27.90
18703;DHT22;9481;48.796;9.210;2023-02-28T17:06:23;11.00;28.00
18703;DHT22;9481;48.796;9.210;2023-02-28T17:08:53;11.00;28.20
18703;DHT22;9481;48.796;9.210;2023-02-28T17:11:20;10.90;28.20
18703;DHT22;9481;48.796;9.210;2023-02-28T17:13:47;10.80;28.20
18703;DHT22;9481;48.796;9.210;2023-02-28T17:16:23;10.80;28.50
18703;DHT22;9481;48.796;9.210;2023-02-28T17:18:54;10.80;28.60
18703;DHT22;9481;48.796;9.210;2023-02-28T17:21:23;10.70;29.10
18703;DHT22;9481;48.796;9.210;2023-02-28T17:23:49;10.70;28.60
18703;DHT22;9481;48.796;9.210;2023-02-28T17:26:17;10.60;28.70
18703;DHT22;9481;48.796;9.210;2023-02-28T17:28:48;10.50;28.80
18703;DHT22;9481;48.796;9.210;2023-02-28T17:31:14;10.50;28.80
18703;DHT22;9481;48.796;9.210;2023-02-28T17:33:40;10.50;29.00
18703;DHT22;9481;48.796;9.210;2023-02-28T17:36:08;10.40;29.10
18703;DHT22;9481;48.796;9.210;2023-02-28T17:38:48;10.40;29.10
18703;DHT22;9481;48.796;9.210;2023-02-28T17:41:14;10.30;29.20
18703;DHT22;9481;48.796;9.210;2023-02-28T17:43:40;10.30;29.20
18703;DHT22;9481;48.796;9.210;2023-02-28T17:46:09;10.20;29.20
18703;DHT22;9481;48.796;9.210;2023-02-28T17:48:46;10.20;29.40
18703;DHT22;9481;48.796;9.210;2023-02-28T17:51:14;10.20;29.70
18703;DHT22;9481;48.796;9.210;2023-02-28T17:53:40;10.10;29.40
18703;DHT22;9481;48.796;9.210;2023-02-28T17:56:15;10.10;29.50
18703;DHT22;9481;48.796;9.210;2023-02-28T17:58:45;10.10;29.70
18703;DHT22;9481;48.796;9.210;2023-02-28T18:01:11;10.00;29.60
18703;DHT22;9481;48.796;9.210;2023-02-28T18:03:37;10.00;29.70
18703;DHT22;9481;48.796;9.210;2023-02-28T18:06:03;10.00;29.80
18703;DHT22;9481;48.796;9.210;2023-02-28T18:08:30;9.90;30.60
18703;DHT22;9481;48.796;9.210;2023-02-28T18:10:58;9.90;30.60
18703;DHT22;9481;48.796;9.210;2023-02-28T18:13:24;9.90;30.80
18703;DHT22;9481;48.796;9.210;2023-02-28T18:15:50;9.80;30.70
18703;DHT22;9481;48.796;9.210;2023-02-28T18:18:15;9.80;30.70
18703;DHT22;9481;48.796;9.210;2023-02-28T18:20:41;9.80;30.80
18703;DHT22;9481;48.796;9.210;2023-02-28T18:23:07;9.80;30.90
18703;DHT22;9481;48.796;9.210;2023-02-28T18:25:33;9.70;30.90
18703;DHT22;9481;48.796;9.210;2023-02-28T18:27:59;9.70;31.00
18703;DHT22;9481;48.796;9.210;2023-02-28T18:30:30;9.70;31.00
18703;DHT22;9481;48.796;9.210;2023-02-28T18:32:58;9.60;31.10
18703;DHT22;9481;48.796;9.210;2023-02-28T18:35:25;9.60;31.10
18703;DHT22;9481;48.796;9.210;2023-02-28T18:40:36;9.60;31.40
18703;DHT22;9481;48.796;9.210;2023-02-28T18:43:02;9.50;31.20
18703;DHT22;9481;48.796;9.210;2023-02-28T18:45:28;9.50;31.30
18703;DHT22;9481;48.796;9.210;2023-02-28T18:47:54;9.50;31.40
18703;DHT22;9481;48.796;9.210;2023-02-28T18:50:20;9.50;31.50
18703;DHT22;9481;48.796;9.210;2023-02-28T18:52:45;9.50;31.40
18703;DHT22;9481;48.796;9.210;2023-02-28T18:55:11;9.40;31.50
18703;DHT22;9481;48.796;9.210;2023-02-28T18:57:43;9.40;31.50